Brownsdale, Minnesota
Current Conditions -  °F | °C
As of 12:36 AM on Sunday 21 Dec 2014 (Local Time) from KAUM Reporting Station
Moderate Fog Moderate Fog  
Wind Chill: 23°   Ceiling: 100
Heat Index: 30°   Visibility: 0.5mi
Dew Point: 30°   Wind: 7mph
Humidity: 100%   Direction: 160°SSE
Pressure: 30.06"   Gusts: NA
Location:  43.74°N, 92.87°W
Report Text: KAUM 210636Z AUTO 16006KT 1/2SM FZFG OVC001 M01/M01 A3006 RMK AO2
Loading
Personal Weather Stations






























Interactive Weather Map New forecast layout! Learn more

10-Day Weather Forecast

Advertisements
Track Severe Weather on mobile